createdAt,value
2018-11-28T00:00:32.871Z,43.20
2018-11-28T00:03:07.191Z,42.67
2018-11-28T00:05:38.519Z,43.40
2018-11-28T00:08:14.840Z,45.07
2018-11-28T00:10:45.482Z,52.40
2018-11-28T00:13:16.162Z,47.23
2018-11-28T00:15:46.886Z,48.93
2018-11-28T00:18:17.605Z,47.67
2018-11-28T00:20:48.276Z,49.37
2018-11-28T00:23:19.062Z,47.90
2018-11-28T00:25:50.297Z,47.37
2018-11-28T00:28:20.960Z,44.37
2018-11-28T00:30:52.148Z,45.77
2018-11-28T00:33:22.820Z,44.13
2018-11-28T00:35:54.218Z,45.57
2018-11-28T00:38:24.934Z,47.73
2018-11-28T00:40:55.624Z,46.23
2018-11-28T00:43:26.284Z,45.73
2018-11-28T00:45:57.874Z,45.17
2018-11-28T00:48:29.595Z,44.67
2018-11-28T00:51:00.275Z,45.20
2018-11-28T00:53:32.844Z,46.07
2018-11-28T00:56:05.453Z,45.23
2018-11-28T00:58:36.102Z,43.77
2018-11-28T01:01:07.018Z,43.77
2018-11-28T01:03:37.642Z,43.00
2018-11-28T01:06:08.281Z,43.63
2018-11-28T01:08:38.976Z,43.67
2018-11-28T01:11:09.676Z,41.57
2018-11-28T01:13:40.314Z,43.03
2018-11-28T01:16:11.016Z,43.00
2018-11-28T01:18:41.671Z,41.27
2018-11-28T01:21:12.431Z,46.33
2018-11-28T01:23:43.118Z,45.73
2018-11-28T01:26:13.776Z,45.60
2018-11-28T01:28:46.584Z,46.10
2018-11-28T01:31:15.173Z,45.40
2018-11-28T01:33:45.911Z,45.27
2018-11-28T01:36:16.520Z,44.67
2018-11-28T01:38:47.315Z,45.63
2018-11-28T01:41:17.975Z,42.40
2018-11-28T01:43:49.256Z,41.37
2018-11-28T01:46:19.893Z,43.00
2018-11-28T01:48:51.031Z,41.87
2018-11-28T01:51:21.686Z,42.57
2018-11-28T01:53:52.397Z,42.00
2018-11-28T01:56:23.026Z,41.97
2018-11-28T01:58:53.686Z,42.43
2018-11-28T02:01:24.333Z,41.67
2018-11-28T02:03:57.903Z,39.80
2018-11-28T02:06:28.647Z,39.83
2018-11-28T02:08:59.377Z,39.37
2018-11-28T02:11:30.126Z,39.50
2018-11-28T02:14:00.882Z,39.90
2018-11-28T02:16:35.656Z,40.30
2018-11-28T02:19:06.634Z,38.47
2018-11-28T02:21:40.514Z,39.37
2018-11-28T02:24:11.246Z,36.60
2018-11-28T02:26:41.952Z,36.20
2018-11-28T02:29:12.654Z,37.60
2018-11-28T02:31:43.365Z,37.27
2018-11-28T02:34:14.078Z,38.67
2018-11-28T02:36:45.356Z,37.27
2018-11-28T02:39:16.056Z,36.47
2018-11-28T02:41:46.743Z,35.40
2018-11-28T02:44:17.475Z,33.33
2018-11-28T02:46:48.172Z,33.73
2018-11-28T02:49:18.888Z,35.80
2018-11-28T02:51:49.495Z,35.40
2018-11-28T02:54:20.150Z,34.53
2018-11-28T02:56:50.809Z,35.40
2018-11-28T02:59:21.428Z,33.83
2018-11-28T03:01:52.327Z,33.57
2018-11-28T03:04:22.985Z,33.50
2018-11-28T03:06:53.638Z,32.33
2018-11-28T03:09:24.481Z,34.80
2018-11-28T03:11:56.034Z,32.10
2018-11-28T03:14:26.728Z,31.33
2018-11-28T03:16:57.362Z,31.87
2018-11-28T03:19:28.082Z,31.40
2018-11-28T03:21:58.774Z,32.17
2018-11-28T03:24:29.575Z,32.60
2018-11-28T03:27:00.507Z,33.63
2018-11-28T03:29:35.694Z,34.03
2018-11-28T03:32:08.213Z,34.03
2018-11-28T03:34:45.278Z,33.63
2018-11-28T03:37:12.188Z,36.73
2018-11-28T03:39:42.867Z,34.97
2018-11-28T03:42:13.754Z,35.73
2018-11-28T03:44:44.476Z,35.57
2018-11-28T03:47:15.414Z,36.57
2018-11-28T03:49:46.790Z,34.83
2018-11-28T03:52:17.498Z,32.73
2018-11-28T03:54:48.191Z,34.77
2018-11-28T03:57:18.898Z,32.27
2018-11-28T03:59:49.519Z,31.47
2018-11-28T04:02:20.192Z,30.77
2018-11-28T04:04:51.074Z,32.10
2018-11-28T04:07:21.728Z,31.03
2018-11-28T04:09:52.688Z,32.57
2018-11-28T04:12:23.467Z,32.27
2018-11-28T04:14:54.780Z,30.13
2018-11-28T04:17:25.752Z,32.53
2018-11-28T04:19:56.975Z,31.47
2018-11-28T04:22:27.696Z,31.90
2018-11-28T04:24:58.443Z,31.10
2018-11-28T04:27:29.185Z,31.43
2018-11-28T04:29:59.875Z,30.43
2018-11-28T04:32:30.491Z,31.97
2018-11-28T04:35:05.404Z,33.60
2018-11-28T04:37:36.051Z,32.93
2018-11-28T04:40:10.487Z,31.57
2018-11-28T04:42:41.198Z,31.33
2018-11-28T04:45:27.659Z,33.60
2018-11-28T04:47:59.410Z,32.70
2018-11-28T04:50:30.101Z,33.43
2018-11-28T04:53:00.718Z,33.93
2018-11-28T04:55:34.742Z,31.37
2018-11-28T04:58:05.464Z,30.90
2018-11-28T05:00:37.378Z,29.20
2018-11-28T05:03:08.126Z,28.90
2018-11-28T05:05:39.232Z,27.73
2018-11-28T05:08:10.418Z,27.93
2018-11-28T05:10:41.104Z,26.43
2018-11-28T05:13:11.759Z,28.47
2018-11-28T05:15:42.439Z,26.80
2018-11-28T05:18:13.200Z,26.80
2018-11-28T05:20:43.853Z,26.47
2018-11-28T05:23:14.548Z,26.40
2018-11-28T05:25:45.366Z,27.63
2018-11-28T05:28:16.631Z,26.77
2018-11-28T05:30:48.343Z,27.37
2018-11-28T05:33:18.989Z,27.20
2018-11-28T05:35:50.260Z,25.07
2018-11-28T05:38:21.251Z,26.50
2018-11-28T05:40:51.974Z,26.80
2018-11-28T05:43:22.660Z,28.37
2018-11-28T05:45:54.227Z,27.57
2018-11-28T05:48:25.055Z,25.23
2018-11-28T05:50:56.320Z,24.70
2018-11-28T05:53:26.975Z,25.13
2018-11-28T05:55:57.663Z,24.33
2018-11-28T05:58:28.384Z,25.13
2018-11-28T06:00:59.073Z,22.73
2018-11-28T06:03:29.875Z,23.80
2018-11-28T06:06:00.504Z,22.00
2018-11-28T06:08:34.810Z,23.17
2018-11-28T06:11:09.199Z,23.57
2018-11-28T06:13:39.870Z,23.73
2018-11-28T06:16:10.515Z,24.63
2018-11-28T06:18:41.186Z,22.83
2018-11-28T06:21:11.799Z,21.40
2018-11-28T06:23:42.470Z,21.73
2018-11-28T06:26:13.083Z,21.90
2018-11-28T06:28:43.717Z,23.27
2018-11-28T06:31:14.348Z,23.53
2018-11-28T06:33:45.002Z,22.03
2018-11-28T06:36:15.750Z,23.20
2018-11-28T06:38:46.400Z,24.60
2018-11-28T06:41:17.112Z,23.83
2018-11-28T06:43:48.355Z,24.30
2018-11-28T06:46:19.036Z,22.67
2018-11-28T06:48:50.072Z,22.83
2018-11-28T06:51:20.930Z,23.63
2018-11-28T06:53:51.855Z,23.90
2018-11-28T06:56:22.510Z,23.53
2018-11-28T06:58:53.184Z,25.47
2018-11-28T07:01:23.852Z,24.37
2018-11-28T07:03:54.568Z,24.47
2018-11-28T07:06:25.239Z,22.83
2018-11-28T07:08:56.559Z,24.23
2018-11-28T07:11:27.203Z,23.47
2018-11-28T07:13:57.835Z,21.37
2018-11-28T07:16:28.510Z,21.60
2018-11-28T07:19:10.718Z,19.40
2018-11-28T07:21:41.438Z,20.23
2018-11-28T07:24:12.091Z,19.03
2018-11-28T07:26:42.721Z,18.47
2018-11-28T07:29:13.336Z,18.67
2018-11-28T07:31:44.036Z,19.30
2018-11-28T07:34:14.747Z,19.27
2018-11-28T07:36:45.634Z,18.00
2018-11-28T07:39:17.805Z,19.10
2018-11-28T07:41:48.711Z,15.77
2018-11-28T07:44:19.338Z,15.80
2018-11-28T07:46:50.135Z,15.50
2018-11-28T07:49:20.798Z,14.80
2018-11-28T07:51:51.444Z,14.07
2018-11-28T07:54:22.112Z,14.37
2018-11-28T07:56:53.753Z,14.60
2018-11-28T07:59:24.332Z,14.00
2018-11-28T08:01:55.262Z,12.80
2018-11-28T08:04:26.204Z,13.57
2018-11-28T08:06:56.790Z,13.67
2018-11-28T08:09:27.463Z,14.50
2018-11-28T08:11:58.131Z,13.87
2018-11-28T08:14:28.918Z,13.73
2018-11-28T08:16:59.539Z,13.07
2018-11-28T08:19:30.242Z,13.83
2018-11-28T08:22:00.861Z,13.33
2018-11-28T08:24:34.220Z,12.87
2018-11-28T08:27:06.216Z,15.07
2018-11-28T08:29:37.973Z,14.83
2018-11-28T08:32:15.764Z,13.57
2018-11-28T08:34:50.792Z,13.77
2018-11-28T08:37:24.886Z,14.37
2018-11-28T08:39:56.899Z,14.33
2018-11-28T08:42:29.315Z,14.60
2018-11-28T08:45:07.150Z,12.70
2018-11-28T08:47:39.032Z,14.33
2018-11-28T08:50:15.836Z,14.13
2018-11-28T08:52:47.280Z,14.00
2018-11-28T08:55:20.675Z,13.73
2018-11-28T08:57:56.846Z,14.45
2018-11-28T09:00:30.920Z,14.23
2018-11-28T09:03:09.395Z,14.93
2018-11-28T09:05:43.535Z,15.30
2018-11-28T09:08:17.057Z,15.10
2018-11-28T09:10:48.053Z,14.43
2018-11-28T09:13:21.499Z,14.23
2018-11-28T09:15:52.900Z,14.10
2018-11-28T09:18:24.106Z,13.77
2018-11-28T09:20:55.519Z,13.07
2018-11-28T09:23:26.468Z,14.27
2018-11-28T09:25:57.345Z,13.18
2018-11-28T09:28:28.346Z,13.20
2018-11-28T09:30:59.427Z,13.20
2018-11-28T09:33:32.535Z,12.87
2018-11-28T09:36:12.051Z,13.70
2018-11-28T09:38:43.700Z,13.38
2018-11-28T09:41:15.204Z,13.88
2018-11-28T09:43:46.219Z,13.60
2018-11-28T09:46:17.247Z,13.40
2018-11-28T09:48:52.665Z,12.13
2018-11-28T09:51:23.548Z,13.38
2018-11-28T09:53:56.337Z,13.18
2018-11-28T09:56:27.799Z,13.17
2018-11-28T09:58:58.805Z,14.13
2018-11-28T10:01:30.585Z,14.00
2018-11-28T10:04:05.183Z,13.62
2018-11-28T10:06:38.784Z,15.03
2018-11-28T10:09:10.265Z,15.53
2018-11-28T10:11:41.145Z,14.85
2018-11-28T10:14:12.362Z,17.02
2018-11-28T10:16:43.993Z,16.32
2018-11-28T10:19:14.725Z,16.87
2018-11-28T10:21:45.674Z,22.82
2018-11-28T10:24:16.514Z,21.15
2018-11-28T10:26:47.355Z,18.42
2018-11-28T10:29:18.110Z,17.65
2018-11-28T10:31:50.430Z,17.37
2018-11-28T10:34:29.369Z,19.92
2018-11-28T10:36:55.759Z,17.35
2018-11-28T10:39:26.960Z,20.02
2018-11-28T10:41:59.103Z,18.50
2018-11-28T10:44:31.138Z,19.35
2018-11-28T10:47:07.025Z,17.20
2018-11-28T10:49:40.417Z,18.32
2018-11-28T10:52:12.589Z,17.30
2018-11-28T10:54:45.968Z,18.77
2018-11-28T10:57:19.170Z,19.12
2018-11-28T10:59:53.178Z,16.60
2018-11-28T11:02:30.755Z,16.32
2018-11-28T11:05:16.008Z,16.50
2018-11-28T11:07:59.320Z,16.80
2018-11-28T11:10:36.885Z,17.23
2018-11-28T11:13:13.384Z,17.42
2018-11-28T11:15:52.053Z,16.67
2018-11-28T11:18:25.190Z,18.37
2018-11-28T11:21:01.951Z,19.05
2018-11-28T11:23:38.580Z,19.17
2018-11-28T11:26:10.681Z,20.25
2018-11-28T11:28:49.070Z,21.62
2018-11-28T11:31:32.409Z,21.82
2018-11-28T11:34:05.792Z,18.17
2018-11-28T11:36:38.957Z,13.83
2018-11-28T11:39:13.554Z,14.45
2018-11-28T11:41:46.761Z,15.43
2018-11-28T11:44:20.194Z,15.23
2018-11-28T11:46:58.449Z,17.40
2018-11-28T11:49:31.007Z,28.23
2018-11-28T11:52:12.116Z,29.90
2018-11-28T11:54:49.319Z,27.73
2018-11-28T11:57:20.726Z,21.93
2018-11-28T11:59:53.285Z,23.62
2018-11-28T12:02:24.887Z,24.85
2018-11-28T12:04:56.270Z,25.23
2018-11-28T12:07:27.660Z,25.25
2018-11-28T12:09:58.597Z,23.00
2018-11-28T12:12:30.641Z,24.25
2018-11-28T12:15:05.464Z,22.20
2018-11-28T12:17:36.445Z,23.60
2018-11-28T12:20:16.745Z,21.90
2018-11-28T12:22:48.610Z,21.73
2018-11-28T12:25:19.954Z,21.23
2018-11-28T12:27:51.221Z,21.07
2018-11-28T12:30:22.684Z,20.20
2018-11-28T12:32:54.501Z,18.42
2018-11-28T12:35:25.747Z,17.98
2018-11-28T12:38:01.158Z,17.62
2018-11-28T12:40:33.947Z,17.50
2018-11-28T12:43:08.958Z,17.07
2018-11-28T12:45:45.033Z,17.17
2018-11-28T12:48:15.814Z,17.40
2018-11-28T12:50:46.519Z,16.65
2018-11-28T12:53:17.226Z,17.57
2018-11-28T12:55:47.899Z,17.80
2018-11-28T12:58:20.906Z,16.80
2018-11-28T13:00:51.574Z,16.57
2018-11-28T13:03:22.215Z,16.93
2018-11-28T13:05:52.925Z,17.98
2018-11-28T13:08:23.728Z,17.40
2018-11-28T13:10:54.364Z,18.57
2018-11-28T13:13:25.275Z,17.57
2018-11-28T13:15:57.095Z,17.32
2018-11-28T13:18:27.802Z,18.50
2018-11-28T13:20:58.503Z,18.67
2018-11-28T13:23:29.171Z,17.35
2018-11-28T13:25:59.804Z,18.32
2018-11-28T13:28:30.431Z,21.42
2018-11-28T13:31:01.149Z,30.62
2018-11-28T13:33:35.643Z,19.30
2018-11-28T13:36:06.487Z,18.73
2018-11-28T13:38:37.532Z,31.62
2018-11-28T13:41:08.221Z,30.90
2018-11-28T13:43:38.850Z,25.88
2018-11-28T13:46:09.563Z,21.17
2018-11-28T13:48:40.362Z,18.52
2018-11-28T13:51:11.003Z,18.42
2018-11-28T13:53:41.650Z,18.75
2018-11-28T13:58:43.027Z,18.90
2018-11-28T14:01:13.709Z,18.80
2018-11-28T14:03:44.563Z,21.82
2018-11-28T14:06:15.258Z,19.77
2018-11-28T14:08:45.994Z,18.07
2018-11-28T14:11:16.654Z,47.62
2018-11-28T14:13:47.427Z,22.95
2018-11-28T14:16:18.302Z,18.90
2018-11-28T14:18:49.104Z,17.07
2018-11-28T14:21:19.723Z,15.00
2018-11-28T14:23:50.433Z,19.98
2018-11-28T14:26:21.154Z,88.15
2018-11-28T14:28:51.849Z,29.92
2018-11-28T14:31:22.687Z,16.85
2018-11-28T14:33:53.352Z,14.70
2018-11-28T14:36:24.093Z,19.80
2018-11-28T14:38:54.765Z,21.90
2018-11-28T14:41:25.369Z,26.27
2018-11-28T14:43:56.094Z,19.00
2018-11-28T14:46:26.794Z,13.80
2018-11-28T14:48:57.465Z,13.32
2018-11-28T14:51:28.129Z,11.73
2018-11-28T14:53:59.298Z,11.45
2018-11-28T14:56:29.966Z,11.33
2018-11-28T14:59:05.541Z,17.37
2018-11-28T15:01:36.173Z,12.53
2018-11-28T15:04:08.254Z,11.68
2018-11-28T15:06:45.487Z,12.35
2018-11-28T15:09:21.268Z,12.95
2018-11-28T15:11:52.288Z,13.20
2018-11-28T15:14:22.935Z,13.88
2018-11-28T15:16:53.627Z,13.55
2018-11-28T15:19:25.347Z,14.13
2018-11-28T15:21:56.200Z,14.70
2018-11-28T15:24:26.838Z,12.20
2018-11-28T15:26:57.631Z,13.15
2018-11-28T15:29:28.830Z,12.90
2018-11-28T15:31:59.653Z,18.60
2018-11-28T15:34:30.366Z,14.65
2018-11-28T15:37:08.516Z,13.08
2018-11-28T15:39:39.286Z,10.05
2018-11-28T15:42:09.966Z,21.73
2018-11-28T15:44:41.483Z,12.93
2018-11-28T15:47:11.387Z,27.20
2018-11-28T15:49:42.514Z,13.85
2018-11-28T15:52:13.253Z,9.05
2018-11-28T15:54:44.031Z,11.15
2018-11-28T15:57:14.711Z,13.22
2018-11-28T15:59:51.723Z,8.73
2018-11-28T16:02:22.390Z,10.65
2018-11-28T16:04:53.116Z,11.63
2018-11-28T16:07:26.008Z,10.85
2018-11-28T16:10:06.988Z,12.10
2018-11-28T16:12:37.854Z,12.88
2018-11-28T16:15:10.391Z,15.38
2018-11-28T16:17:41.068Z,16.27
2018-11-28T16:20:11.845Z,16.12
2018-11-28T16:22:42.584Z,16.20
2018-11-28T16:25:13.711Z,16.32
2018-11-28T16:27:44.518Z,15.95
2018-11-28T16:30:16.410Z,16.57
2018-11-28T16:32:47.460Z,19.95
2018-11-28T16:35:18.597Z,20.25
2018-11-28T16:37:49.439Z,21.07
2018-11-28T16:40:20.319Z,30.48
2018-11-28T16:42:51.267Z,26.55
2018-11-28T16:45:22.984Z,23.57
2018-11-28T16:47:53.714Z,23.90
2018-11-28T16:50:24.382Z,26.75
2018-11-28T16:52:55.107Z,26.23
2018-11-28T16:55:25.742Z,26.62
2018-11-28T16:57:56.678Z,27.13
2018-11-28T17:00:28.854Z,26.35
2018-11-28T17:02:59.594Z,26.10
2018-11-28T17:05:30.372Z,26.93
2018-11-28T17:08:04.210Z,30.72
2018-11-28T17:10:34.876Z,28.98
2018-11-28T17:13:08.252Z,32.58
2018-11-28T17:15:38.998Z,31.35
2018-11-28T17:18:10.196Z,32.60
2018-11-28T17:20:42.708Z,31.62
2018-11-28T17:23:13.676Z,31.10
2018-11-28T17:25:45.181Z,33.55
2018-11-28T17:28:15.781Z,30.82
2018-11-28T17:30:46.517Z,31.23
2018-11-28T17:33:17.187Z,30.62
2018-11-28T17:35:47.848Z,28.00
2018-11-28T17:38:18.537Z,30.72
2018-11-28T17:40:49.191Z,31.30
2018-11-28T17:43:19.870Z,31.90
2018-11-28T17:45:50.502Z,34.55
2018-11-28T17:48:21.235Z,33.28
2018-11-28T17:50:51.914Z,32.15
2018-11-28T17:53:22.605Z,63.40
2018-11-28T17:55:54.618Z,60.65
2018-11-28T17:58:25.307Z,54.73
2018-11-28T18:00:55.974Z,58.87
2018-11-28T18:03:26.650Z,49.18
2018-11-28T18:05:57.298Z,44.60
2018-11-28T18:08:28.065Z,37.42
2018-11-28T18:11:09.921Z,47.13
2018-11-28T18:13:42.188Z,54.77
2018-11-28T18:16:13.189Z,41.77
2018-11-28T18:18:44.226Z,41.98
2018-11-28T18:21:14.876Z,44.95
2018-11-28T18:23:45.685Z,42.58
2018-11-28T18:26:17.090Z,39.67
2018-11-28T18:28:47.926Z,41.55
2018-11-28T18:31:18.618Z,42.83
2018-11-28T18:33:49.446Z,60.78
2018-11-28T18:36:20.603Z,71.25
2018-11-28T18:38:51.322Z,51.85
2018-11-28T18:41:22.010Z,52.25
2018-11-28T18:43:52.975Z,52.73
2018-11-28T18:46:23.603Z,50.23
2018-11-28T18:48:54.234Z,45.20
2018-11-28T18:51:25.005Z,49.23
2018-11-28T18:53:55.643Z,50.10
2018-11-28T18:56:26.476Z,51.08
2018-11-28T18:58:58.173Z,46.63
2018-11-28T19:01:28.788Z,46.63
2018-11-28T19:03:59.541Z,46.05
2018-11-28T19:06:30.189Z,50.28
2018-11-28T19:09:00.828Z,47.45
2018-11-28T19:11:34.708Z,48.30
2018-11-28T19:14:12.301Z,50.73
2018-11-28T19:16:38.878Z,48.40
2018-11-28T19:19:09.518Z,53.23
2018-11-28T19:21:40.216Z,61.43
2018-11-28T19:24:10.898Z,61.23
2018-11-28T19:26:41.690Z,60.58
2018-11-28T19:29:16.013Z,60.77
2018-11-28T19:31:46.593Z,53.87
2018-11-28T19:34:18.332Z,55.47
2018-11-28T19:36:48.173Z,56.63
2018-11-28T19:39:18.822Z,66.20
2018-11-28T19:41:49.494Z,68.03
2018-11-28T19:44:20.150Z,66.67
2018-11-28T19:46:50.816Z,67.23
2018-11-28T19:49:21.423Z,68.07
2018-11-28T19:51:53.047Z,69.60
2018-11-28T19:54:25.245Z,66.17
2018-11-28T19:56:56.750Z,58.90
2018-11-28T19:59:27.470Z,73.00
2018-11-28T20:02:07.901Z,66.47
2018-11-28T20:04:39.281Z,63.40
2018-11-28T20:07:10.548Z,74.43
2018-11-28T20:09:41.217Z,149.13
2018-11-28T20:12:11.844Z,235.17
2018-11-28T20:14:42.551Z,122.97
2018-11-28T20:17:13.775Z,166.23
2018-11-28T20:19:44.458Z,90.50
2018-11-28T20:22:15.131Z,67.70
2018-11-28T20:24:49.394Z,75.57
2018-11-28T20:27:22.705Z,68.37
2018-11-28T20:29:53.470Z,74.03
2018-11-28T20:32:24.803Z,52.13
2018-11-28T20:34:55.488Z,56.27
2018-11-28T20:37:28.110Z,52.80
2018-11-28T20:39:58.895Z,85.27
2018-11-28T20:42:29.755Z,79.87
2018-11-28T20:45:00.382Z,99.17
2018-11-28T20:47:35.175Z,92.17
2018-11-28T20:50:20.781Z,83.07
2018-11-28T20:52:55.049Z,76.90
2018-11-28T20:55:24.926Z,59.40
2018-11-28T20:57:55.754Z,55.07
2018-11-28T21:00:27.083Z,51.73
2018-11-28T21:02:57.774Z,59.30
2018-11-28T21:05:28.527Z,60.63
2018-11-28T21:07:59.329Z,55.73
2018-11-28T21:10:40.653Z,60.90
2018-11-28T21:13:13.758Z,64.90
2018-11-28T21:15:45.632Z,58.37
2018-11-28T21:18:16.752Z,55.63
2018-11-28T21:20:47.817Z,58.43
2018-11-28T21:23:19.551Z,59.30
2018-11-28T21:25:51.503Z,64.30
2018-11-28T21:28:22.141Z,64.23
2018-11-28T21:30:52.966Z,53.40
2018-11-28T21:33:23.625Z,53.97
2018-11-28T21:35:54.526Z,55.80
2018-11-28T21:38:25.264Z,57.60
2018-11-28T21:40:56.202Z,67.13
2018-11-28T21:43:27.876Z,81.07
2018-11-28T21:45:58.553Z,70.20
2018-11-28T21:48:30.242Z,62.40
2018-11-28T21:51:03.297Z,64.27
2018-11-28T21:53:34.698Z,66.53
2018-11-28T21:56:06.120Z,66.27
2018-11-28T21:58:43.036Z,63.80
2018-11-28T22:01:40.728Z,64.93
2018-11-28T22:07:37.977Z,57.03
2018-11-28T22:10:18.311Z,55.40
2018-11-28T22:12:49.569Z,65.20
2018-11-28T22:15:20.387Z,67.27
2018-11-28T22:17:53.103Z,72.97
2018-11-28T22:20:24.295Z,84.13
2018-11-28T22:22:55.069Z,76.03
2018-11-28T22:25:27.778Z,73.13
2018-11-28T22:27:58.461Z,77.77
2018-11-28T22:30:29.945Z,73.73
2018-11-28T22:33:03.546Z,78.80
2018-11-28T22:35:35.093Z,70.80
2018-11-28T22:38:08.185Z,65.13
2018-11-28T22:40:38.929Z,63.30
2018-11-28T22:43:09.585Z,70.77
2018-11-28T22:45:40.385Z,117.87
2018-11-28T22:48:11.048Z,93.07
2018-11-28T22:50:41.725Z,75.07
2018-11-28T22:53:12.377Z,65.40
2018-11-28T22:55:43.622Z,61.20
2018-11-28T22:58:14.251Z,58.23
2018-11-28T23:00:50.925Z,61.67
2018-11-28T23:03:21.709Z,66.17
2018-11-28T23:05:53.008Z,62.70
2018-11-28T23:08:23.813Z,60.53
2018-11-28T23:10:54.546Z,62.80
2018-11-28T23:13:26.032Z,60.83
2018-11-28T23:15:56.663Z,60.50
2018-11-28T23:18:28.010Z,62.90
2018-11-28T23:20:58.662Z,63.60
2018-11-28T23:23:29.432Z,65.60
2018-11-28T23:26:00.111Z,61.67
2018-11-28T23:28:35.739Z,58.27
2018-11-28T23:31:06.471Z,55.17
2018-11-28T23:33:37.150Z,63.97
2018-11-28T23:36:07.947Z,67.90
2018-11-28T23:38:38.677Z,70.70
2018-11-28T23:41:09.389Z,66.60
2018-11-28T23:43:41.024Z,67.67
2018-11-28T23:46:11.606Z,62.13
2018-11-28T23:48:42.331Z,61.37
2018-11-28T23:51:13.683Z,59.13
2018-11-28T23:53:44.403Z,57.27
2018-11-28T23:56:15.166Z,57.00
2018-11-28T23:58:45.834Z,56.43
